sensor_id;sensor_type;location;lat;lon;timestamp;P1;durP1;ratioP1;P2;durP2;ratioP2
41261;SDS011;29629;52.532;13.352;2023-04-16T00:00:01;94.97;;;69.20;;
41261;SDS011;29629;52.532;13.352;2023-04-16T00:02:29;92.57;;;69.93;;
41261;SDS011;29629;52.532;13.352;2023-04-16T00:04:56;93.97;;;68.55;;
41261;SDS011;29629;52.532;13.352;2023-04-16T00:07:23;95.47;;;69.45;;
41261;SDS011;29629;52.532;13.352;2023-04-16T00:09:51;105.65;;;71.60;;
41261;SDS011;29629;52.532;13.352;2023-04-16T00:12:18;91.40;;;68.07;;
41261;SDS011;29629;52.532;13.352;2023-04-16T00:14:45;89.38;;;67.38;;
41261;SDS011;29629;52.532;13.352;2023-04-16T00:17:13;120.10;;;76.30;;
41261;SDS011;29629;52.532;13.352;2023-04-16T00:19:40;97.95;;;69.85;;
41261;SDS011;29629;52.532;13.352;2023-04-16T00:22:07;89.95;;;68.28;;
41261;SDS011;29629;52.532;13.352;2023-04-16T00:24:33;94.82;;;69.13;;
41261;SDS011;29629;52.532;13.352;2023-04-16T00:27:02;95.28;;;68.53;;
41261;SDS011;29629;52.532;13.352;2023-04-16T00:29:29;91.78;;;68.22;;
41261;SDS011;29629;52.532;13.352;2023-04-16T00:31:56;102.53;;;71.53;;
41261;SDS011;29629;52.532;13.352;2023-04-16T00:34:23;99.00;;;70.22;;
41261;SDS011;29629;52.532;13.352;2023-04-16T00:36:50;92.88;;;67.80;;
41261;SDS011;29629;52.532;13.352;2023-04-16T00:39:17;88.53;;;66.90;;
41261;SDS011;29629;52.532;13.352;2023-04-16T00:41:44;103.18;;;71.95;;
41261;SDS011;29629;52.532;13.352;2023-04-16T00:44:12;96.72;;;69.28;;
41261;SDS011;29629;52.532;13.352;2023-04-16T00:46:39;95.57;;;71.03;;
41261;SDS011;29629;52.532;13.352;2023-04-16T00:49:06;96.07;;;69.85;;
41261;SDS011;29629;52.532;13.352;2023-04-16T00:51:34;98.72;;;69.57;;
41261;SDS011;29629;52.532;13.352;2023-04-16T00:54:01;96.43;;;69.55;;
41261;SDS011;29629;52.532;13.352;2023-04-16T00:56:29;95.00;;;69.55;;
41261;SDS011;29629;52.532;13.352;2023-04-16T00:58:55;104.53;;;71.65;;
41261;SDS011;29629;52.532;13.352;2023-04-16T01:03:56;111.53;;;76.65;;
41261;SDS011;29629;52.532;13.352;2023-04-16T01:06:23;94.18;;;71.78;;
41261;SDS011;29629;52.532;13.352;2023-04-16T01:08:50;101.60;;;73.80;;
41261;SDS011;29629;52.532;13.352;2023-04-16T01:11:17;98.13;;;71.68;;
41261;SDS011;29629;52.532;13.352;2023-04-16T01:13:43;94.78;;;71.35;;
41261;SDS011;29629;52.532;13.352;2023-04-16T01:16:11;95.85;;;71.35;;
41261;SDS011;29629;52.532;13.352;2023-04-16T01:18:38;87.63;;;68.63;;
41261;SDS011;29629;52.532;13.352;2023-04-16T01:21:07;95.35;;;71.82;;
41261;SDS011;29629;52.532;13.352;2023-04-16T01:23:34;84.25;;;67.07;;
41261;SDS011;29629;52.532;13.352;2023-04-16T01:26:00;96.20;;;69.95;;
41261;SDS011;29629;52.532;13.352;2023-04-16T01:28:27;97.28;;;70.72;;
41261;SDS011;29629;52.532;13.352;2023-04-16T01:30:54;95.30;;;70.10;;
41261;SDS011;29629;52.532;13.352;2023-04-16T01:33:21;93.82;;;71.38;;
41261;SDS011;29629;52.532;13.352;2023-04-16T01:35:48;109.68;;;73.63;;
41261;SDS011;29629;52.532;13.352;2023-04-16T01:38:16;97.45;;;72.68;;
41261;SDS011;29629;52.532;13.352;2023-04-16T01:40:43;95.53;;;71.60;;
41261;SDS011;29629;52.532;13.352;2023-04-16T01:43:10;91.60;;;70.68;;
41261;SDS011;29629;52.532;13.352;2023-04-16T01:45:37;99.13;;;72.35;;
41261;SDS011;29629;52.532;13.352;2023-04-16T01:48:04;92.65;;;71.03;;
41261;SDS011;29629;52.532;13.352;2023-04-16T01:50:32;96.38;;;70.82;;
41261;SDS011;29629;52.532;13.352;2023-04-16T01:52:59;99.28;;;73.10;;
41261;SDS011;29629;52.532;13.352;2023-04-16T01:55:30;92.18;;;70.45;;
41261;SDS011;29629;52.532;13.352;2023-04-16T01:57:57;92.00;;;69.75;;
41261;SDS011;29629;52.532;13.352;2023-04-16T02:00:24;94.20;;;70.70;;
41261;SDS011;29629;52.532;13.352;2023-04-16T02:02:51;94.75;;;70.20;;
41261;SDS011;29629;52.532;13.352;2023-04-16T02:05:18;91.60;;;69.32;;
41261;SDS011;29629;52.532;13.352;2023-04-16T02:07:45;101.28;;;72.88;;
41261;SDS011;29629;52.532;13.352;2023-04-16T02:10:12;89.20;;;67.82;;
41261;SDS011;29629;52.532;13.352;2023-04-16T02:12:40;88.28;;;69.80;;
41261;SDS011;29629;52.532;13.352;2023-04-16T02:15:07;97.15;;;71.97;;
41261;SDS011;29629;52.532;13.352;2023-04-16T02:17:35;92.45;;;69.88;;
41261;SDS011;29629;52.532;13.352;2023-04-16T02:20:02;100.25;;;73.05;;
41261;SDS011;29629;52.532;13.352;2023-04-16T02:22:32;91.70;;;69.65;;
41261;SDS011;29629;52.532;13.352;2023-04-16T02:24:58;90.40;;;67.68;;
41261;SDS011;29629;52.532;13.352;2023-04-16T02:27:25;97.43;;;72.40;;
41261;SDS011;29629;52.532;13.352;2023-04-16T02:29:53;104.88;;;74.60;;
41261;SDS011;29629;52.532;13.352;2023-04-16T02:32:20;91.88;;;70.63;;
41261;SDS011;29629;52.532;13.352;2023-04-16T02:34:47;95.03;;;71.82;;
41261;SDS011;29629;52.532;13.352;2023-04-16T02:37:14;92.13;;;70.60;;
41261;SDS011;29629;52.532;13.352;2023-04-16T02:39:41;99.78;;;72.38;;
41261;SDS011;29629;52.532;13.352;2023-04-16T02:42:09;92.70;;;70.20;;
41261;SDS011;29629;52.532;13.352;2023-04-16T02:44:36;99.20;;;70.55;;
41261;SDS011;29629;52.532;13.352;2023-04-16T02:47:04;89.47;;;69.47;;
41261;SDS011;29629;52.532;13.352;2023-04-16T02:49:31;88.57;;;69.97;;
41261;SDS011;29629;52.532;13.352;2023-04-16T02:51:57;94.57;;;70.63;;
41261;SDS011;29629;52.532;13.352;2023-04-16T02:54:24;94.05;;;71.15;;
41261;SDS011;29629;52.532;13.352;2023-04-16T02:56:51;96.85;;;72.35;;
41261;SDS011;29629;52.532;13.352;2023-04-16T02:59:18;96.18;;;70.22;;
41261;SDS011;29629;52.532;13.352;2023-04-16T03:01:45;110.15;;;73.30;;
41261;SDS011;29629;52.532;13.352;2023-04-16T03:04:13;98.15;;;72.50;;
41261;SDS011;29629;52.532;13.352;2023-04-16T03:06:40;93.20;;;70.07;;
41261;SDS011;29629;52.532;13.352;2023-04-16T03:09:07;99.05;;;72.47;;
41261;SDS011;29629;52.532;13.352;2023-04-16T03:11:34;98.47;;;72.90;;
41261;SDS011;29629;52.532;13.352;2023-04-16T03:14:01;96.65;;;72.05;;
41261;SDS011;29629;52.532;13.352;2023-04-16T03:16:27;92.30;;;70.07;;
41261;SDS011;29629;52.532;13.352;2023-04-16T03:18:54;101.85;;;72.80;;
41261;SDS011;29629;52.532;13.352;2023-04-16T03:21:23;95.85;;;72.55;;
41261;SDS011;29629;52.532;13.352;2023-04-16T03:23:49;103.35;;;71.82;;
41261;SDS011;29629;52.532;13.352;2023-04-16T03:26:17;100.78;;;73.55;;
41261;SDS011;29629;52.532;13.352;2023-04-16T03:28:44;96.65;;;70.97;;
41261;SDS011;29629;52.532;13.352;2023-04-16T03:31:11;96.10;;;72.35;;
41261;SDS011;29629;52.532;13.352;2023-04-16T03:33:38;95.60;;;72.85;;
41261;SDS011;29629;52.532;13.352;2023-04-16T03:36:05;101.90;;;72.90;;
41261;SDS011;29629;52.532;13.352;2023-04-16T03:38:34;96.88;;;70.53;;
41261;SDS011;29629;52.532;13.352;2023-04-16T03:41:01;101.43;;;72.05;;
41261;SDS011;29629;52.532;13.352;2023-04-16T03:43:28;95.82;;;71.68;;
41261;SDS011;29629;52.532;13.352;2023-04-16T03:45:55;101.53;;;73.13;;
41261;SDS011;29629;52.532;13.352;2023-04-16T03:48:22;91.47;;;69.53;;
41261;SDS011;29629;52.532;13.352;2023-04-16T03:50:48;97.22;;;73.00;;
41261;SDS011;29629;52.532;13.352;2023-04-16T03:53:15;97.22;;;72.65;;
41261;SDS011;29629;52.532;13.352;2023-04-16T03:55:44;101.60;;;71.35;;
41261;SDS011;29629;52.532;13.352;2023-04-16T03:58:10;92.03;;;68.63;;
41261;SDS011;29629;52.532;13.352;2023-04-16T04:00:40;98.88;;;69.18;;
41261;SDS011;29629;52.532;13.352;2023-04-16T04:03:07;99.72;;;72.10;;
41261;SDS011;29629;52.532;13.352;2023-04-16T04:05:35;96.25;;;71.82;;
41261;SDS011;29629;52.532;13.352;2023-04-16T04:08:02;92.32;;;70.82;;
41261;SDS011;29629;52.532;13.352;2023-04-16T04:10:30;96.75;;;72.75;;
41261;SDS011;29629;52.532;13.352;2023-04-16T04:12:58;93.40;;;69.88;;
41261;SDS011;29629;52.532;13.352;2023-04-16T04:15:25;94.82;;;71.55;;
41261;SDS011;29629;52.532;13.352;2023-04-16T04:17:52;98.00;;;71.35;;
41261;SDS011;29629;52.532;13.352;2023-04-16T04:20:19;93.40;;;68.80;;
41261;SDS011;29629;52.532;13.352;2023-04-16T04:22:46;115.65;;;76.85;;
41261;SDS011;29629;52.532;13.352;2023-04-16T04:25:13;102.00;;;74.15;;
41261;SDS011;29629;52.532;13.352;2023-04-16T04:27:40;97.85;;;72.78;;
41261;SDS011;29629;52.532;13.352;2023-04-16T04:30:09;95.32;;;72.07;;
41261;SDS011;29629;52.532;13.352;2023-04-16T04:32:36;97.65;;;71.97;;
41261;SDS011;29629;52.532;13.352;2023-04-16T04:35:03;103.40;;;71.00;;
41261;SDS011;29629;52.532;13.352;2023-04-16T04:37:31;96.78;;;69.90;;
41261;SDS011;29629;52.532;13.352;2023-04-16T04:39:57;99.65;;;72.38;;
41261;SDS011;29629;52.532;13.352;2023-04-16T04:42:24;90.82;;;70.07;;
41261;SDS011;29629;52.532;13.352;2023-04-16T04:44:51;94.07;;;71.53;;
41261;SDS011;29629;52.532;13.352;2023-04-16T04:47:19;96.85;;;72.43;;
41261;SDS011;29629;52.532;13.352;2023-04-16T04:49:46;101.70;;;73.70;;
41261;SDS011;29629;52.532;13.352;2023-04-16T04:52:13;91.03;;;70.90;;
41261;SDS011;29629;52.532;13.352;2023-04-16T04:54:40;98.60;;;71.95;;
41261;SDS011;29629;52.532;13.352;2023-04-16T04:57:07;103.25;;;74.43;;
41261;SDS011;29629;52.532;13.352;2023-04-16T04:59:34;95.15;;;72.07;;
41261;SDS011;29629;52.532;13.352;2023-04-16T05:02:01;97.80;;;72.80;;
41261;SDS011;29629;52.532;13.352;2023-04-16T05:04:29;101.38;;;73.85;;
41261;SDS011;29629;52.532;13.352;2023-04-16T05:06:56;97.57;;;72.03;;
41261;SDS011;29629;52.532;13.352;2023-04-16T05:09:23;98.50;;;72.95;;
41261;SDS011;29629;52.532;13.352;2023-04-16T05:11:50;101.93;;;71.97;;
41261;SDS011;29629;52.532;13.352;2023-04-16T05:14:17;96.90;;;72.53;;
41261;SDS011;29629;52.532;13.352;2023-04-16T05:16:44;95.28;;;72.40;;
41261;SDS011;29629;52.532;13.352;2023-04-16T05:19:11;94.60;;;72.85;;
41261;SDS011;29629;52.532;13.352;2023-04-16T05:21:39;95.32;;;72.82;;
41261;SDS011;29629;52.532;13.352;2023-04-16T05:24:06;99.15;;;73.75;;
41261;SDS011;29629;52.532;13.352;2023-04-16T05:26:33;99.68;;;71.50;;
41261;SDS011;29629;52.532;13.352;2023-04-16T05:29:00;110.57;;;75.50;;
41261;SDS011;29629;52.532;13.352;2023-04-16T05:31:27;93.85;;;71.95;;
41261;SDS011;29629;52.532;13.352;2023-04-16T05:33:54;98.70;;;74.28;;
41261;SDS011;29629;52.532;13.352;2023-04-16T05:36:20;97.10;;;71.53;;
41261;SDS011;29629;52.532;13.352;2023-04-16T05:38:49;102.18;;;73.53;;
41261;SDS011;29629;52.532;13.352;2023-04-16T05:41:16;95.55;;;71.63;;
41261;SDS011;29629;52.532;13.352;2023-04-16T05:43:43;92.80;;;71.97;;
41261;SDS011;29629;52.532;13.352;2023-04-16T05:46:09;93.78;;;70.80;;
41261;SDS011;29629;52.532;13.352;2023-04-16T05:48:36;96.53;;;71.53;;
41261;SDS011;29629;52.532;13.352;2023-04-16T05:51:03;92.60;;;71.97;;
41261;SDS011;29629;52.532;13.352;2023-04-16T05:53:30;93.75;;;69.93;;
41261;SDS011;29629;52.532;13.352;2023-04-16T05:55:59;100.53;;;74.15;;
41261;SDS011;29629;52.532;13.352;2023-04-16T05:58:25;96.80;;;73.50;;
41261;SDS011;29629;52.532;13.352;2023-04-16T06:00:52;101.55;;;71.53;;
41261;SDS011;29629;52.532;13.352;2023-04-16T06:03:19;100.78;;;72.50;;
41261;SDS011;29629;52.532;13.352;2023-04-16T06:05:46;98.10;;;71.40;;
41261;SDS011;29629;52.532;13.352;2023-04-16T06:08:13;96.68;;;70.45;;
41261;SDS011;29629;52.532;13.352;2023-04-16T06:10:40;94.07;;;70.05;;
41261;SDS011;29629;52.532;13.352;2023-04-16T06:13:08;91.85;;;71.32;;
41261;SDS011;29629;52.532;13.352;2023-04-16T06:15:35;84.75;;;68.60;;
41261;SDS011;29629;52.532;13.352;2023-04-16T06:18:02;92.40;;;71.80;;
41261;SDS011;29629;52.532;13.352;2023-04-16T06:20:29;89.40;;;69.70;;
41261;SDS011;29629;52.532;13.352;2023-04-16T06:22:56;93.85;;;71.13;;
41261;SDS011;29629;52.532;13.352;2023-04-16T06:25:23;94.00;;;68.65;;
41261;SDS011;29629;52.532;13.352;2023-04-16T06:27:50;98.80;;;73.72;;
41261;SDS011;29629;52.532;13.352;2023-04-16T06:30:18;95.22;;;70.95;;
41261;SDS011;29629;52.532;13.352;2023-04-16T06:32:45;92.88;;;70.38;;
41261;SDS011;29629;52.532;13.352;2023-04-16T06:35:12;93.40;;;69.32;;
41261;SDS011;29629;52.532;13.352;2023-04-16T06:37:39;94.43;;;71.32;;
41261;SDS011;29629;52.532;13.352;2023-04-16T06:40:06;88.25;;;67.75;;
41261;SDS011;29629;52.532;13.352;2023-04-16T06:42:34;91.97;;;70.88;;
41261;SDS011;29629;52.532;13.352;2023-04-16T06:45:01;92.63;;;70.82;;
41261;SDS011;29629;52.532;13.352;2023-04-16T06:47:29;95.82;;;71.65;;
41261;SDS011;29629;52.532;13.352;2023-04-16T06:49:56;87.93;;;70.03;;
41261;SDS011;29629;52.532;13.352;2023-04-16T06:52:23;93.55;;;71.10;;
41261;SDS011;29629;52.532;13.352;2023-04-16T06:54:50;94.97;;;70.90;;
41261;SDS011;29629;52.532;13.352;2023-04-16T06:57:17;88.80;;;69.32;;
41261;SDS011;29629;52.532;13.352;2023-04-16T06:59:44;95.28;;;72.75;;
41261;SDS011;29629;52.532;13.352;2023-04-16T07:02:10;95.25;;;72.22;;
41261;SDS011;29629;52.532;13.352;2023-04-16T07:04:39;106.47;;;74.85;;
41261;SDS011;29629;52.532;13.352;2023-04-16T07:07:06;92.97;;;67.32;;
41261;SDS011;29629;52.532;13.352;2023-04-16T07:09:33;93.57;;;67.40;;
41261;SDS011;29629;52.532;13.352;2023-04-16T07:12:00;105.88;;;70.88;;
41261;SDS011;29629;52.532;13.352;2023-04-16T07:14:27;90.32;;;68.07;;
41261;SDS011;29629;52.532;13.352;2023-04-16T07:16:54;86.80;;;65.90;;
41261;SDS011;29629;52.532;13.352;2023-04-16T07:19:21;95.97;;;69.15;;
41261;SDS011;29629;52.532;13.352;2023-04-16T07:21:49;98.15;;;68.93;;
41261;SDS011;29629;52.532;13.352;2023-04-16T07:24:16;92.22;;;67.68;;
41261;SDS011;29629;52.532;13.352;2023-04-16T07:26:43;92.47;;;68.10;;
41261;SDS011;29629;52.532;13.352;2023-04-16T07:29:10;95.53;;;68.53;;
41261;SDS011;29629;52.532;13.352;2023-04-16T07:31:37;93.05;;;67.32;;
41261;SDS011;29629;52.532;13.352;2023-04-16T07:34:06;97.22;;;69.47;;
41261;SDS011;29629;52.532;13.352;2023-04-16T07:36:33;92.75;;;68.43;;
41261;SDS011;29629;52.532;13.352;2023-04-16T07:39:03;106.28;;;72.75;;
41261;SDS011;29629;52.532;13.352;2023-04-16T07:41:30;94.70;;;67.00;;
41261;SDS011;29629;52.532;13.352;2023-04-16T07:43:57;97.05;;;68.18;;
41261;SDS011;29629;52.532;13.352;2023-04-16T07:46:24;86.88;;;65.88;;
41261;SDS011;29629;52.532;13.352;2023-04-16T07:48:51;101.20;;;70.95;;
41261;SDS011;29629;52.532;13.352;2023-04-16T07:51:18;100.47;;;70.15;;
41261;SDS011;29629;52.532;13.352;2023-04-16T07:53:45;94.82;;;67.60;;
41261;SDS011;29629;52.532;13.352;2023-04-16T07:56:13;96.72;;;70.35;;
41261;SDS011;29629;52.532;13.352;2023-04-16T07:58:40;80.75;;;64.10;;
41261;SDS011;29629;52.532;13.352;2023-04-16T08:01:07;95.38;;;68.10;;
41261;SDS011;29629;52.532;13.352;2023-04-16T08:03:33;90.95;;;66.82;;
41261;SDS011;29629;52.532;13.352;2023-04-16T08:06:00;92.65;;;67.85;;
41261;SDS011;29629;52.532;13.352;2023-04-16T08:08:27;86.85;;;65.13;;
41261;SDS011;29629;52.532;13.352;2023-04-16T08:10:54;88.38;;;67.13;;
41261;SDS011;29629;52.532;13.352;2023-04-16T08:13:23;98.05;;;68.05;;
41261;SDS011;29629;52.532;13.352;2023-04-16T08:15:50;96.93;;;68.07;;
41261;SDS011;29629;52.532;13.352;2023-04-16T08:18:17;95.68;;;67.60;;
41261;SDS011;29629;52.532;13.352;2023-04-16T08:20:44;89.85;;;67.32;;
41261;SDS011;29629;52.532;13.352;2023-04-16T08:23:11;92.35;;;67.55;;
41261;SDS011;29629;52.532;13.352;2023-04-16T08:25:38;88.90;;;65.47;;
41261;SDS011;29629;52.532;13.352;2023-04-16T08:28:05;101.00;;;70.22;;
41261;SDS011;29629;52.532;13.352;2023-04-16T08:30:33;90.75;;;67.82;;
41261;SDS011;29629;52.532;13.352;2023-04-16T08:33:00;93.90;;;67.47;;
41261;SDS011;29629;52.532;13.352;2023-04-16T08:35:27;94.20;;;67.18;;
41261;SDS011;29629;52.532;13.352;2023-04-16T08:37:54;99.32;;;69.07;;
41261;SDS011;29629;52.532;13.352;2023-04-16T08:40:24;95.93;;;69.43;;
41261;SDS011;29629;52.532;13.352;2023-04-16T08:42:52;99.57;;;67.95;;
41261;SDS011;29629;52.532;13.352;2023-04-16T08:45:20;90.50;;;66.07;;
41261;SDS011;29629;52.532;13.352;2023-04-16T08:47:50;97.82;;;67.63;;
41261;SDS011;29629;52.532;13.352;2023-04-16T08:50:21;87.15;;;65.18;;
41261;SDS011;29629;52.532;13.352;2023-04-16T08:52:49;96.82;;;67.30;;
41261;SDS011;29629;52.532;13.352;2023-04-16T08:55:18;88.32;;;66.60;;
41261;SDS011;29629;52.532;13.352;2023-04-16T08:57:49;88.05;;;66.70;;
41261;SDS011;29629;52.532;13.352;2023-04-16T09:00:19;97.18;;;67.50;;
41261;SDS011;29629;52.532;13.352;2023-04-16T09:02:46;89.97;;;65.85;;
41261;SDS011;29629;52.532;13.352;2023-04-16T09:05:15;93.82;;;66.55;;
41261;SDS011;29629;52.532;13.352;2023-04-16T09:07:43;90.45;;;67.30;;
41261;SDS011;29629;52.532;13.352;2023-04-16T09:10:11;82.43;;;64.75;;
41261;SDS011;29629;52.532;13.352;2023-04-16T09:12:40;89.05;;;65.47;;
41261;SDS011;29629;52.532;13.352;2023-04-16T09:15:07;74.75;;;62.00;;
41261;SDS011;29629;52.532;13.352;2023-04-16T09:17:35;93.60;;;67.70;;
41261;SDS011;29629;52.532;13.352;2023-04-16T09:20:03;90.38;;;67.47;;
41261;SDS011;29629;52.532;13.352;2023-04-16T09:22:34;84.25;;;64.28;;
41261;SDS011;29629;52.532;13.352;2023-04-16T09:25:01;81.32;;;63.70;;
41261;SDS011;29629;52.532;13.352;2023-04-16T09:27:28;83.75;;;64.63;;
41261;SDS011;29629;52.532;13.352;2023-04-16T09:29:56;88.60;;;65.90;;
41261;SDS011;29629;52.532;13.352;2023-04-16T09:32:24;85.88;;;64.80;;
41261;SDS011;29629;52.532;13.352;2023-04-16T09:34:55;85.95;;;65.53;;
41261;SDS011;29629;52.532;13.352;2023-04-16T09:37:23;85.88;;;64.47;;
41261;SDS011;29629;52.532;13.352;2023-04-16T09:39:56;78.82;;;63.08;;
41261;SDS011;29629;52.532;13.352;2023-04-16T09:42:24;84.60;;;63.33;;
41261;SDS011;29629;52.532;13.352;2023-04-16T09:44:52;89.35;;;66.07;;
41261;SDS011;29629;52.532;13.352;2023-04-16T09:47:20;85.80;;;64.97;;
41261;SDS011;29629;52.532;13.352;2023-04-16T09:49:48;86.80;;;65.72;;
41261;SDS011;29629;52.532;13.352;2023-04-16T09:52:15;87.78;;;66.25;;
41261;SDS011;29629;52.532;13.352;2023-04-16T09:54:46;88.70;;;66.18;;
41261;SDS011;29629;52.532;13.352;2023-04-16T09:57:16;82.38;;;63.70;;
41261;SDS011;29629;52.532;13.352;2023-04-16T09:59:46;89.63;;;67.10;;
41261;SDS011;29629;52.532;13.352;2023-04-16T10:02:13;92.47;;;66.68;;
41261;SDS011;29629;52.532;13.352;2023-04-16T10:04:50;87.07;;;66.10;;
41261;SDS011;29629;52.532;13.352;2023-04-16T10:07:18;93.72;;;66.45;;
41261;SDS011;29629;52.532;13.352;2023-04-16T10:09:45;89.78;;;67.28;;
41261;SDS011;29629;52.532;13.352;2023-04-16T10:12:13;79.95;;;64.50;;
41261;SDS011;29629;52.532;13.352;2023-04-16T10:14:42;88.15;;;65.75;;
41261;SDS011;29629;52.532;13.352;2023-04-16T10:17:09;85.53;;;65.30;;
41261;SDS011;29629;52.532;13.352;2023-04-16T10:19:36;84.85;;;65.57;;
41261;SDS011;29629;52.532;13.352;2023-04-16T10:22:04;96.93;;;68.60;;
41261;SDS011;29629;52.532;13.352;2023-04-16T10:24:32;91.95;;;67.72;;
41261;SDS011;29629;52.532;13.352;2023-04-16T10:26:59;104.55;;;71.93;;
41261;SDS011;29629;52.532;13.352;2023-04-16T10:29:27;98.82;;;69.25;;
41261;SDS011;29629;52.532;13.352;2023-04-16T10:31:57;99.70;;;70.28;;
41261;SDS011;29629;52.532;13.352;2023-04-16T10:34:25;93.05;;;68.32;;
41261;SDS011;29629;52.532;13.352;2023-04-16T10:36:53;94.45;;;67.38;;
41261;SDS011;29629;52.532;13.352;2023-04-16T10:39:21;92.70;;;68.95;;
41261;SDS011;29629;52.532;13.352;2023-04-16T10:41:49;99.05;;;71.07;;
41261;SDS011;29629;52.532;13.352;2023-04-16T10:44:17;89.18;;;66.97;;
41261;SDS011;29629;52.532;13.352;2023-04-16T10:46:45;91.88;;;66.88;;
41261;SDS011;29629;52.532;13.352;2023-04-16T10:49:16;87.97;;;66.00;;
41261;SDS011;29629;52.532;13.352;2023-04-16T10:51:51;90.63;;;68.38;;
41261;SDS011;29629;52.532;13.352;2023-04-16T10:54:22;86.70;;;66.20;;
41261;SDS011;29629;52.532;13.352;2023-04-16T10:56:51;89.85;;;67.70;;
41261;SDS011;29629;52.532;13.352;2023-04-16T10:59:19;90.30;;;67.68;;
41261;SDS011;29629;52.532;13.352;2023-04-16T11:01:47;83.25;;;65.78;;
41261;SDS011;29629;52.532;13.352;2023-04-16T11:04:27;82.25;;;64.68;;
41261;SDS011;29629;52.532;13.352;2023-04-16T11:07:06;82.10;;;64.78;;
41261;SDS011;29629;52.532;13.352;2023-04-16T11:12:28;80.25;;;63.20;;
41261;SDS011;29629;52.532;13.352;2023-04-16T11:15:01;84.97;;;65.63;;
41261;SDS011;29629;52.532;13.352;2023-04-16T11:17:31;73.68;;;62.13;;
41261;SDS011;29629;52.532;13.352;2023-04-16T11:20:03;68.32;;;60.53;;
41261;SDS011;29629;52.532;13.352;2023-04-16T11:22:33;80.25;;;63.88;;
41261;SDS011;29629;52.532;13.352;2023-04-16T11:25:01;76.22;;;62.33;;
41261;SDS011;29629;52.532;13.352;2023-04-16T11:27:29;74.22;;;61.45;;
41261;SDS011;29629;52.532;13.352;2023-04-16T11:29:57;83.82;;;64.60;;
41261;SDS011;29629;52.532;13.352;2023-04-16T11:32:24;83.88;;;64.60;;
41261;SDS011;29629;52.532;13.352;2023-04-16T11:34:51;96.00;;;67.60;;
41261;SDS011;29629;52.532;13.352;2023-04-16T11:37:20;85.10;;;65.57;;
41261;SDS011;29629;52.532;13.352;2023-04-16T11:39:57;83.55;;;64.88;;
41261;SDS011;29629;52.532;13.352;2023-04-16T11:42:24;79.63;;;63.30;;
41261;SDS011;29629;52.532;13.352;2023-04-16T11:44:53;88.90;;;65.15;;
41261;SDS011;29629;52.532;13.352;2023-04-16T11:47:21;89.20;;;65.43;;
41261;SDS011;29629;52.532;13.352;2023-04-16T11:49:49;79.35;;;64.32;;
41261;SDS011;29629;52.532;13.352;2023-04-16T11:52:27;76.60;;;62.35;;
41261;SDS011;29629;52.532;13.352;2023-04-16T11:54:55;90.63;;;64.63;;
41261;SDS011;29629;52.532;13.352;2023-04-16T11:57:23;75.47;;;61.88;;
41261;SDS011;29629;52.532;13.352;2023-04-16T11:59:51;85.47;;;65.30;;
41261;SDS011;29629;52.532;13.352;2023-04-16T12:02:32;79.25;;;63.50;;
41261;SDS011;29629;52.532;13.352;2023-04-16T12:05:00;85.57;;;65.53;;
41261;SDS011;29629;52.532;13.352;2023-04-16T12:07:29;85.47;;;65.40;;
41261;SDS011;29629;52.532;13.352;2023-04-16T12:10:03;85.47;;;64.72;;
41261;SDS011;29629;52.532;13.352;2023-04-16T12:12:31;83.38;;;64.88;;
41261;SDS011;29629;52.532;13.352;2023-04-16T12:14:59;81.68;;;64.93;;
41261;SDS011;29629;52.532;13.352;2023-04-16T12:17:28;76.20;;;61.75;;
41261;SDS011;29629;52.532;13.352;2023-04-16T12:19:56;84.30;;;64.60;;
41261;SDS011;29629;52.532;13.352;2023-04-16T12:22:29;78.97;;;63.22;;
41261;SDS011;29629;52.532;13.352;2023-04-16T12:24:59;82.35;;;63.70;;
41261;SDS011;29629;52.532;13.352;2023-04-16T12:27:40;82.65;;;64.82;;
41261;SDS011;29629;52.532;13.352;2023-04-16T12:30:09;95.15;;;67.95;;
41261;SDS011;29629;52.532;13.352;2023-04-16T12:32:37;82.70;;;63.53;;
41261;SDS011;29629;52.532;13.352;2023-04-16T12:35:04;87.72;;;65.15;;
41261;SDS011;29629;52.532;13.352;2023-04-16T12:37:32;90.78;;;66.32;;
41261;SDS011;29629;52.532;13.352;2023-04-16T12:40:00;93.80;;;66.55;;
41261;SDS011;29629;52.532;13.352;2023-04-16T12:42:27;85.30;;;65.03;;
41261;SDS011;29629;52.532;13.352;2023-04-16T12:44:59;90.45;;;65.50;;
41261;SDS011;29629;52.532;13.352;2023-04-16T12:47:29;97.60;;;68.18;;
41261;SDS011;29629;52.532;13.352;2023-04-16T12:49:56;84.47;;;64.70;;
41261;SDS011;29629;52.532;13.352;2023-04-16T12:52:23;90.65;;;66.88;;
41261;SDS011;29629;52.532;13.352;2023-04-16T12:54:51;86.35;;;64.75;;
41261;SDS011;29629;52.532;13.352;2023-04-16T12:57:18;88.30;;;65.75;;
41261;SDS011;29629;52.532;13.352;2023-04-16T12:59:45;85.53;;;65.93;;
41261;SDS011;29629;52.532;13.352;2023-04-16T13:02:12;95.70;;;67.97;;
41261;SDS011;29629;52.532;13.352;2023-04-16T13:04:38;92.53;;;66.63;;
41261;SDS011;29629;52.532;13.352;2023-04-16T13:07:05;81.32;;;64.60;;
41261;SDS011;29629;52.532;13.352;2023-04-16T13:09:32;91.53;;;65.75;;
41261;SDS011;29629;52.532;13.352;2023-04-16T13:12:01;88.78;;;66.65;;
41261;SDS011;29629;52.532;13.352;2023-04-16T13:14:28;83.97;;;64.90;;
41261;SDS011;29629;52.532;13.352;2023-04-16T13:16:54;86.05;;;65.22;;
41261;SDS011;29629;52.532;13.352;2023-04-16T13:19:21;88.25;;;65.30;;
41261;SDS011;29629;52.532;13.352;2023-04-16T13:21:48;85.90;;;65.15;;
41261;SDS011;29629;52.532;13.352;2023-04-16T13:24:15;94.13;;;67.65;;
41261;SDS011;29629;52.532;13.352;2023-04-16T13:26:42;89.07;;;65.68;;
41261;SDS011;29629;52.532;13.352;2023-04-16T13:29:10;87.57;;;65.57;;
41261;SDS011;29629;52.532;13.352;2023-04-16T13:31:37;83.82;;;64.18;;
41261;SDS011;29629;52.532;13.352;2023-04-16T13:34:04;83.43;;;63.90;;
41261;SDS011;29629;52.532;13.352;2023-04-16T13:36:31;93.18;;;66.70;;
41261;SDS011;29629;52.532;13.352;2023-04-16T13:38:58;100.85;;;69.13;;
41261;SDS011;29629;52.532;13.352;2023-04-16T13:41:28;83.47;;;63.63;;
41261;SDS011;29629;52.532;13.352;2023-04-16T13:43:55;84.95;;;63.53;;
41261;SDS011;29629;52.532;13.352;2023-04-16T13:46:24;85.40;;;64.30;;
41261;SDS011;29629;52.532;13.352;2023-04-16T13:48:51;88.03;;;65.20;;
41261;SDS011;29629;52.532;13.352;2023-04-16T13:51:18;82.18;;;62.75;;
41261;SDS011;29629;52.532;13.352;2023-04-16T13:53:45;80.25;;;63.83;;
41261;SDS011;29629;52.532;13.352;2023-04-16T13:56:12;87.45;;;65.28;;
41261;SDS011;29629;52.532;13.352;2023-04-16T13:58:39;87.45;;;65.00;;
41261;SDS011;29629;52.532;13.352;2023-04-16T14:01:06;82.05;;;65.10;;
41261;SDS011;29629;52.532;13.352;2023-04-16T14:03:36;84.95;;;64.95;;
41261;SDS011;29629;52.532;13.352;2023-04-16T14:06:04;86.80;;;64.82;;
41261;SDS011;29629;52.532;13.352;2023-04-16T14:08:31;89.00;;;65.00;;
41261;SDS011;29629;52.532;13.352;2023-04-16T14:10:58;82.45;;;63.85;;
41261;SDS011;29629;52.532;13.352;2023-04-16T14:13:26;78.75;;;63.10;;
41261;SDS011;29629;52.532;13.352;2023-04-16T14:15:53;85.10;;;64.05;;